sensor_id;sensor_type;location;lat;lon;timestamp;pressure;altitude;pressure_sealevel;temperature;humidity
57250;BME280;43102;52.014;-0.680;2024-03-02T00:00:01;98117;;;4.08;82.25
57250;BME280;43102;52.014;-0.680;2024-03-02T00:01:00;98117;;;4.08;82.25
57250;BME280;43102;52.014;-0.680;2024-03-02T00:02:00;98114;;;4.10;82.31
57250;BME280;43102;52.014;-0.680;2024-03-02T00:03:00;98114;;;4.10;82.31
57250;BME280;43102;52.014;-0.680;2024-03-02T00:04:00;98114;;;4.10;82.31
57250;BME280;43102;52.014;-0.680;2024-03-02T00:05:00;98114;;;4.10;82.31
57250;BME280;43102;52.014;-0.680;2024-03-02T00:06:00;98114;;;4.10;82.31
57250;BME280;43102;52.014;-0.680;2024-03-02T00:07:00;98117;;;4.08;82.36
57250;BME280;43102;52.014;-0.680;2024-03-02T00:08:00;98117;;;4.08;82.36
57250;BME280;43102;52.014;-0.680;2024-03-02T00:09:00;98117;;;4.08;82.36
57250;BME280;43102;52.014;-0.680;2024-03-02T00:10:00;98117;;;4.08;82.36
57250;BME280;43102;52.014;-0.680;2024-03-02T00:11:00;98117;;;4.08;82.36
57250;BME280;43102;52.014;-0.680;2024-03-02T00:12:00;98110;;;4.07;82.49
57250;BME280;43102;52.014;-0.680;2024-03-02T00:13:00;98110;;;4.07;82.49
57250;BME280;43102;52.014;-0.680;2024-03-02T00:14:00;98110;;;4.07;82.49
57250;BME280;43102;52.014;-0.680;2024-03-02T00:15:00;98110;;;4.07;82.49
57250;BME280;43102;52.014;-0.680;2024-03-02T00:16:00;98110;;;4.07;82.49
57250;BME280;43102;52.014;-0.680;2024-03-02T00:17:00;98105;;;4.06;82.61
57250;BME280;43102;52.014;-0.680;2024-03-02T00:18:00;98105;;;4.06;82.61
57250;BME280;43102;52.014;-0.680;2024-03-02T00:19:01;98105;;;4.06;82.61
57250;BME280;43102;52.014;-0.680;2024-03-02T00:20:00;98105;;;4.06;82.61
57250;BME280;43102;52.014;-0.680;2024-03-02T00:21:00;98105;;;4.06;82.61
57250;BME280;43102;52.014;-0.680;2024-03-02T00:22:00;98117;;;4.06;82.72
57250;BME280;43102;52.014;-0.680;2024-03-02T00:23:04;98117;;;4.06;82.72
57250;BME280;43102;52.014;-0.680;2024-03-02T00:24:00;98117;;;4.06;82.72
57250;BME280;43102;52.014;-0.680;2024-03-02T00:25:00;98117;;;4.06;82.72
57250;BME280;43102;52.014;-0.680;2024-03-02T00:26:00;98117;;;4.06;82.72
57250;BME280;43102;52.014;-0.680;2024-03-02T00:27:01;98108;;;4.08;82.84
57250;BME280;43102;52.014;-0.680;2024-03-02T00:28:00;98108;;;4.08;82.84
57250;BME280;43102;52.014;-0.680;2024-03-02T00:29:00;98108;;;4.08;82.84
57250;BME280;43102;52.014;-0.680;2024-03-02T00:30:01;98108;;;4.08;82.84
57250;BME280;43102;52.014;-0.680;2024-03-02T00:31:02;98108;;;4.08;82.84
57250;BME280;43102;52.014;-0.680;2024-03-02T00:32:00;98098;;;4.06;82.93
57250;BME280;43102;52.014;-0.680;2024-03-02T00:33:00;98098;;;4.06;82.93
57250;BME280;43102;52.014;-0.680;2024-03-02T00:34:00;98098;;;4.06;82.93
57250;BME280;43102;52.014;-0.680;2024-03-02T00:35:00;98098;;;4.06;82.93
57250;BME280;43102;52.014;-0.680;2024-03-02T00:36:00;98098;;;4.06;82.93
57250;BME280;43102;52.014;-0.680;2024-03-02T00:37:00;98093;;;4.06;83.00
57250;BME280;43102;52.014;-0.680;2024-03-02T00:38:07;98093;;;4.06;83.00
57250;BME280;43102;52.014;-0.680;2024-03-02T00:39:00;98093;;;4.06;83.00
57250;BME280;43102;52.014;-0.680;2024-03-02T00:40:00;98093;;;4.06;83.00
57250;BME280;43102;52.014;-0.680;2024-03-02T00:41:03;98093;;;4.06;83.00
57250;BME280;43102;52.014;-0.680;2024-03-02T00:42:00;98089;;;4.02;83.14
57250;BME280;43102;52.014;-0.680;2024-03-02T00:43:00;98089;;;4.02;83.14
57250;BME280;43102;52.014;-0.680;2024-03-02T00:44:02;98089;;;4.02;83.14
57250;BME280;43102;52.014;-0.680;2024-03-02T00:45:00;98089;;;4.02;83.14
57250;BME280;43102;52.014;-0.680;2024-03-02T00:46:00;98089;;;4.02;83.14
57250;BME280;43102;52.014;-0.680;2024-03-02T00:47:00;98096;;;4.01;83.12
57250;BME280;43102;52.014;-0.680;2024-03-02T00:48:00;98096;;;4.01;83.12
57250;BME280;43102;52.014;-0.680;2024-03-02T00:49:01;98096;;;4.01;83.12
57250;BME280;43102;52.014;-0.680;2024-03-02T00:50:00;98096;;;4.01;83.12
57250;BME280;43102;52.014;-0.680;2024-03-02T00:51:00;98096;;;4.01;83.12
57250;BME280;43102;52.014;-0.680;2024-03-02T00:52:00;98099;;;4.02;83.30
57250;BME280;43102;52.014;-0.680;2024-03-02T00:53:01;98099;;;4.02;83.30
57250;BME280;43102;52.014;-0.680;2024-03-02T00:54:01;98099;;;4.02;83.30
57250;BME280;43102;52.014;-0.680;2024-03-02T00:55:00;98099;;;4.02;83.30
57250;BME280;43102;52.014;-0.680;2024-03-02T00:56:00;98099;;;4.02;83.30
57250;BME280;43102;52.014;-0.680;2024-03-02T00:57:00;98096;;;4.03;83.32
57250;BME280;43102;52.014;-0.680;2024-03-02T00:58:00;98096;;;4.03;83.32
57250;BME280;43102;52.014;-0.680;2024-03-02T00:59:00;98096;;;4.03;83.32
57250;BME280;43102;52.014;-0.680;2024-03-02T01:00:00;98096;;;4.03;83.32
57250;BME280;43102;52.014;-0.680;2024-03-02T01:01:00;98096;;;4.03;83.32
57250;BME280;43102;52.014;-0.680;2024-03-02T01:02:00;98107;;;4.06;83.31
57250;BME280;43102;52.014;-0.680;2024-03-02T01:03:00;98107;;;4.06;83.31
57250;BME280;43102;52.014;-0.680;2024-03-02T01:04:00;98107;;;4.06;83.31
57250;BME280;43102;52.014;-0.680;2024-03-02T01:05:00;98107;;;4.06;83.31
57250;BME280;43102;52.014;-0.680;2024-03-02T01:06:00;98107;;;4.06;83.31
57250;BME280;43102;52.014;-0.680;2024-03-02T01:07:00;98110;;;4.06;83.37
57250;BME280;43102;52.014;-0.680;2024-03-02T01:08:00;98110;;;4.06;83.37
57250;BME280;43102;52.014;-0.680;2024-03-02T01:09:00;98110;;;4.06;83.37
57250;BME280;43102;52.014;-0.680;2024-03-02T01:10:00;98110;;;4.06;83.37
57250;BME280;43102;52.014;-0.680;2024-03-02T01:11:00;98110;;;4.06;83.37
57250;BME280;43102;52.014;-0.680;2024-03-02T01:12:00;98108;;;4.11;83.40
57250;BME280;43102;52.014;-0.680;2024-03-02T01:13:00;98108;;;4.11;83.40
57250;BME280;43102;52.014;-0.680;2024-03-02T01:14:00;98108;;;4.11;83.40
57250;BME280;43102;52.014;-0.680;2024-03-02T01:15:00;98108;;;4.11;83.40
57250;BME280;43102;52.014;-0.680;2024-03-02T01:16:00;98108;;;4.11;83.40
57250;BME280;43102;52.014;-0.680;2024-03-02T01:17:00;98106;;;4.15;83.62
57250;BME280;43102;52.014;-0.680;2024-03-02T01:18:00;98106;;;4.15;83.62
57250;BME280;43102;52.014;-0.680;2024-03-02T01:19:00;98106;;;4.15;83.62
57250;BME280;43102;52.014;-0.680;2024-03-02T01:20:00;98106;;;4.15;83.62
57250;BME280;43102;52.014;-0.680;2024-03-02T01:21:00;98106;;;4.15;83.62
57250;BME280;43102;52.014;-0.680;2024-03-02T01:22:00;98108;;;4.22;83.62
57250;BME280;43102;52.014;-0.680;2024-03-02T01:23:00;98108;;;4.22;83.62
57250;BME280;43102;52.014;-0.680;2024-03-02T01:24:00;98108;;;4.22;83.62
57250;BME280;43102;52.014;-0.680;2024-03-02T01:25:00;98108;;;4.22;83.62
57250;BME280;43102;52.014;-0.680;2024-03-02T01:26:00;98108;;;4.22;83.62
57250;BME280;43102;52.014;-0.680;2024-03-02T01:27:00;98113;;;4.24;84.10
57250;BME280;43102;52.014;-0.680;2024-03-02T01:28:00;98113;;;4.24;84.10
57250;BME280;43102;52.014;-0.680;2024-03-02T01:29:00;98113;;;4.24;84.10
57250;BME280;43102;52.014;-0.680;2024-03-02T01:30:00;98113;;;4.24;84.10
57250;BME280;43102;52.014;-0.680;2024-03-02T01:31:00;98113;;;4.24;84.10
57250;BME280;43102;52.014;-0.680;2024-03-02T01:32:00;98107;;;4.31;84.03
57250;BME280;43102;52.014;-0.680;2024-03-02T01:33:00;98107;;;4.31;84.03
57250;BME280;43102;52.014;-0.680;2024-03-02T01:34:00;98107;;;4.31;84.03
57250;BME280;43102;52.014;-0.680;2024-03-02T01:35:00;98107;;;4.31;84.03
57250;BME280;43102;52.014;-0.680;2024-03-02T01:36:00;98107;;;4.31;84.03
57250;BME280;43102;52.014;-0.680;2024-03-02T01:37:01;98097;;;4.33;84.12
57250;BME280;43102;52.014;-0.680;2024-03-02T01:38:00;98097;;;4.33;84.12
57250;BME280;43102;52.014;-0.680;2024-03-02T01:39:00;98097;;;4.33;84.12
57250;BME280;43102;52.014;-0.680;2024-03-02T01:40:00;98097;;;4.33;84.12
57250;BME280;43102;52.014;-0.680;2024-03-02T01:41:00;98097;;;4.33;84.12
57250;BME280;43102;52.014;-0.680;2024-03-02T01:42:00;98101;;;4.35;84.12
57250;BME280;43102;52.014;-0.680;2024-03-02T01:43:00;98101;;;4.35;84.12
57250;BME280;43102;52.014;-0.680;2024-03-02T01:44:00;98101;;;4.35;84.12
57250;BME280;43102;52.014;-0.680;2024-03-02T01:45:00;98101;;;4.35;84.12
57250;BME280;43102;52.014;-0.680;2024-03-02T01:46:00;98101;;;4.35;84.12
57250;BME280;43102;52.014;-0.680;2024-03-02T01:47:00;98091;;;4.35;84.11
57250;BME280;43102;52.014;-0.680;2024-03-02T01:48:01;98091;;;4.35;84.11
57250;BME280;43102;52.014;-0.680;2024-03-02T01:49:00;98091;;;4.35;84.11
57250;BME280;43102;52.014;-0.680;2024-03-02T01:50:00;98091;;;4.35;84.11
57250;BME280;43102;52.014;-0.680;2024-03-02T01:51:00;98091;;;4.35;84.11
57250;BME280;43102;52.014;-0.680;2024-03-02T01:52:00;98082;;;4.32;84.04
57250;BME280;43102;52.014;-0.680;2024-03-02T01:53:00;98082;;;4.32;84.04
57250;BME280;43102;52.014;-0.680;2024-03-02T01:54:00;98082;;;4.32;84.04
57250;BME280;43102;52.014;-0.680;2024-03-02T01:55:00;98082;;;4.32;84.04
57250;BME280;43102;52.014;-0.680;2024-03-02T01:56:00;98082;;;4.32;84.04
57250;BME280;43102;52.014;-0.680;2024-03-02T01:57:00;98079;;;4.30;84.12
57250;BME280;43102;52.014;-0.680;2024-03-02T01:58:00;98079;;;4.30;84.12
57250;BME280;43102;52.014;-0.680;2024-03-02T01:59:00;98079;;;4.30;84.12
57250;BME280;43102;52.014;-0.680;2024-03-02T02:00:00;98079;;;4.30;84.12
57250;BME280;43102;52.014;-0.680;2024-03-02T02:01:00;98079;;;4.30;84.12
57250;BME280;43102;52.014;-0.680;2024-03-02T02:02:00;98072;;;4.29;84.12
57250;BME280;43102;52.014;-0.680;2024-03-02T02:03:00;98072;;;4.29;84.12
57250;BME280;43102;52.014;-0.680;2024-03-02T02:04:00;98072;;;4.29;84.12
57250;BME280;43102;52.014;-0.680;2024-03-02T02:05:00;98072;;;4.29;84.12
57250;BME280;43102;52.014;-0.680;2024-03-02T02:06:00;98072;;;4.29;84.12
57250;BME280;43102;52.014;-0.680;2024-03-02T02:07:00;98062;;;4.19;84.04
57250;BME280;43102;52.014;-0.680;2024-03-02T02:08:00;98062;;;4.19;84.04
57250;BME280;43102;52.014;-0.680;2024-03-02T02:09:00;98062;;;4.19;84.04
57250;BME280;43102;52.014;-0.680;2024-03-02T02:10:00;98062;;;4.19;84.04
57250;BME280;43102;52.014;-0.680;2024-03-02T02:11:00;98062;;;4.19;84.04
57250;BME280;43102;52.014;-0.680;2024-03-02T02:12:00;98058;;;4.14;83.97
57250;BME280;43102;52.014;-0.680;2024-03-02T02:13:00;98058;;;4.14;83.97
57250;BME280;43102;52.014;-0.680;2024-03-02T02:14:00;98058;;;4.14;83.97
57250;BME280;43102;52.014;-0.680;2024-03-02T02:15:00;98058;;;4.14;83.97
57250;BME280;43102;52.014;-0.680;2024-03-02T02:16:07;98058;;;4.14;83.97
57250;BME280;43102;52.014;-0.680;2024-03-02T02:17:00;98061;;;4.12;83.88
57250;BME280;43102;52.014;-0.680;2024-03-02T02:18:00;98061;;;4.12;83.88
57250;BME280;43102;52.014;-0.680;2024-03-02T02:19:00;98061;;;4.12;83.88
57250;BME280;43102;52.014;-0.680;2024-03-02T02:20:00;98061;;;4.12;83.88
57250;BME280;43102;52.014;-0.680;2024-03-02T02:21:00;98061;;;4.12;83.88
57250;BME280;43102;52.014;-0.680;2024-03-02T02:22:00;98048;;;4.08;84.04
57250;BME280;43102;52.014;-0.680;2024-03-02T02:23:00;98048;;;4.08;84.04
57250;BME280;43102;52.014;-0.680;2024-03-02T02:24:00;98048;;;4.08;84.04
57250;BME280;43102;52.014;-0.680;2024-03-02T02:25:00;98048;;;4.08;84.04
57250;BME280;43102;52.014;-0.680;2024-03-02T02:26:00;98048;;;4.08;84.04
57250;BME280;43102;52.014;-0.680;2024-03-02T02:27:00;98042;;;4.03;84.08
57250;BME280;43102;52.014;-0.680;2024-03-02T02:28:00;98042;;;4.03;84.08
57250;BME280;43102;52.014;-0.680;2024-03-02T02:29:00;98042;;;4.03;84.08
57250;BME280;43102;52.014;-0.680;2024-03-02T02:30:00;98042;;;4.03;84.08
57250;BME280;43102;52.014;-0.680;2024-03-02T02:31:00;98042;;;4.03;84.08
57250;BME280;43102;52.014;-0.680;2024-03-02T02:32:00;98034;;;4.00;84.10
57250;BME280;43102;52.014;-0.680;2024-03-02T02:33:00;98034;;;4.00;84.10
57250;BME280;43102;52.014;-0.680;2024-03-02T02:34:00;98034;;;4.00;84.10
57250;BME280;43102;52.014;-0.680;2024-03-02T02:35:00;98034;;;4.00;84.10
57250;BME280;43102;52.014;-0.680;2024-03-02T02:36:00;98034;;;4.00;84.10
57250;BME280;43102;52.014;-0.680;2024-03-02T02:37:00;98034;;;3.93;84.25
57250;BME280;43102;52.014;-0.680;2024-03-02T02:38:00;98034;;;3.93;84.25
57250;BME280;43102;52.014;-0.680;2024-03-02T02:39:01;98034;;;3.93;84.25
57250;BME280;43102;52.014;-0.680;2024-03-02T02:40:00;98034;;;3.93;84.25
57250;BME280;43102;52.014;-0.680;2024-03-02T02:41:00;98034;;;3.93;84.25
57250;BME280;43102;52.014;-0.680;2024-03-02T02:42:00;98036;;;3.95;84.22
57250;BME280;43102;52.014;-0.680;2024-03-02T02:43:00;98036;;;3.95;84.22
57250;BME280;43102;52.014;-0.680;2024-03-02T02:44:00;98036;;;3.95;84.22
57250;BME280;43102;52.014;-0.680;2024-03-02T02:45:00;98036;;;3.95;84.22
57250;BME280;43102;52.014;-0.680;2024-03-02T02:46:00;98036;;;3.95;84.22
57250;BME280;43102;52.014;-0.680;2024-03-02T02:47:00;98042;;;3.92;84.34
57250;BME280;43102;52.014;-0.680;2024-03-02T02:48:00;98042;;;3.92;84.34
57250;BME280;43102;52.014;-0.680;2024-03-02T02:49:00;98042;;;3.92;84.34
57250;BME280;43102;52.014;-0.680;2024-03-02T02:50:00;98042;;;3.92;84.34
57250;BME280;43102;52.014;-0.680;2024-03-02T02:51:00;98042;;;3.92;84.34
57250;BME280;43102;52.014;-0.680;2024-03-02T02:52:00;98029;;;3.92;84.39
57250;BME280;43102;52.014;-0.680;2024-03-02T02:53:00;98029;;;3.92;84.39
57250;BME280;43102;52.014;-0.680;2024-03-02T02:54:00;98029;;;3.92;84.39
57250;BME280;43102;52.014;-0.680;2024-03-02T02:55:00;98029;;;3.92;84.39
57250;BME280;43102;52.014;-0.680;2024-03-02T02:56:00;98029;;;3.92;84.39
57250;BME280;43102;52.014;-0.680;2024-03-02T02:57:00;98030;;;3.95;84.54
57250;BME280;43102;52.014;-0.680;2024-03-02T02:58:00;98030;;;3.95;84.54
57250;BME280;43102;52.014;-0.680;2024-03-02T02:59:00;98030;;;3.95;84.54
57250;BME280;43102;52.014;-0.680;2024-03-02T03:00:01;98030;;;3.95;84.54
57250;BME280;43102;52.014;-0.680;2024-03-02T03:01:00;98030;;;3.95;84.54
57250;BME280;43102;52.014;-0.680;2024-03-02T03:02:00;98029;;;4.01;84.57
57250;BME280;43102;52.014;-0.680;2024-03-02T03:03:00;98029;;;4.01;84.57
57250;BME280;43102;52.014;-0.680;2024-03-02T03:04:00;98029;;;4.01;84.57
57250;BME280;43102;52.014;-0.680;2024-03-02T03:05:00;98029;;;4.01;84.57
57250;BME280;43102;52.014;-0.680;2024-03-02T03:06:00;98029;;;4.01;84.57
57250;BME280;43102;52.014;-0.680;2024-03-02T03:07:00;98030;;;4.04;84.77
57250;BME280;43102;52.014;-0.680;2024-03-02T03:08:00;98030;;;4.04;84.77
57250;BME280;43102;52.014;-0.680;2024-03-02T03:09:00;98030;;;4.04;84.77
57250;BME280;43102;52.014;-0.680;2024-03-02T03:10:00;98030;;;4.04;84.77
57250;BME280;43102;52.014;-0.680;2024-03-02T03:11:00;98030;;;4.04;84.77
57250;BME280;43102;52.014;-0.680;2024-03-02T03:12:00;98024;;;4.10;84.86
57250;BME280;43102;52.014;-0.680;2024-03-02T03:13:00;98024;;;4.10;84.86
57250;BME280;43102;52.014;-0.680;2024-03-02T03:14:00;98024;;;4.10;84.86
57250;BME280;43102;52.014;-0.680;2024-03-02T03:15:00;98024;;;4.10;84.86
57250;BME280;43102;52.014;-0.680;2024-03-02T03:16:00;98024;;;4.10;84.86
57250;BME280;43102;52.014;-0.680;2024-03-02T03:17:00;98023;;;4.15;84.99
57250;BME280;43102;52.014;-0.680;2024-03-02T03:18:00;98023;;;4.15;84.99
57250;BME280;43102;52.014;-0.680;2024-03-02T03:19:00;98023;;;4.15;84.99
57250;BME280;43102;52.014;-0.680;2024-03-02T03:20:00;98023;;;4.15;84.99
57250;BME280;43102;52.014;-0.680;2024-03-02T03:21:00;98023;;;4.15;84.99
57250;BME280;43102;52.014;-0.680;2024-03-02T03:22:00;98027;;;4.19;85.01
57250;BME280;43102;52.014;-0.680;2024-03-02T03:23:00;98027;;;4.19;85.01
57250;BME280;43102;52.014;-0.680;2024-03-02T03:24:00;98027;;;4.19;85.01
57250;BME280;43102;52.014;-0.680;2024-03-02T03:25:00;98027;;;4.19;85.01
57250;BME280;43102;52.014;-0.680;2024-03-02T03:26:00;98027;;;4.19;85.01
57250;BME280;43102;52.014;-0.680;2024-03-02T03:27:00;98028;;;4.21;85.14
57250;BME280;43102;52.014;-0.680;2024-03-02T03:28:00;98028;;;4.21;85.14
57250;BME280;43102;52.014;-0.680;2024-03-02T03:29:00;98028;;;4.21;85.14
57250;BME280;43102;52.014;-0.680;2024-03-02T03:30:00;98028;;;4.21;85.14
57250;BME280;43102;52.014;-0.680;2024-03-02T03:31:00;98028;;;4.21;85.14
57250;BME280;43102;52.014;-0.680;2024-03-02T03:32:00;98023;;;4.23;85.14
57250;BME280;43102;52.014;-0.680;2024-03-02T03:33:00;98023;;;4.23;85.14
57250;BME280;43102;52.014;-0.680;2024-03-02T03:34:00;98023;;;4.23;85.14
57250;BME280;43102;52.014;-0.680;2024-03-02T03:35:00;98023;;;4.23;85.14
57250;BME280;43102;52.014;-0.680;2024-03-02T03:36:00;98023;;;4.23;85.14
57250;BME280;43102;52.014;-0.680;2024-03-02T03:37:00;98019;;;4.21;85.19
57250;BME280;43102;52.014;-0.680;2024-03-02T03:38:00;98019;;;4.21;85.19
57250;BME280;43102;52.014;-0.680;2024-03-02T03:39:00;98019;;;4.21;85.19
57250;BME280;43102;52.014;-0.680;2024-03-02T03:40:00;98019;;;4.21;85.19
57250;BME280;43102;52.014;-0.680;2024-03-02T03:41:00;98019;;;4.21;85.19
57250;BME280;43102;52.014;-0.680;2024-03-02T03:42:00;98008;;;4.25;85.11
57250;BME280;43102;52.014;-0.680;2024-03-02T03:43:00;98008;;;4.25;85.11
57250;BME280;43102;52.014;-0.680;2024-03-02T03:44:00;98008;;;4.25;85.11
57250;BME280;43102;52.014;-0.680;2024-03-02T03:45:00;98008;;;4.25;85.11
57250;BME280;43102;52.014;-0.680;2024-03-02T03:46:00;98008;;;4.25;85.11
57250;BME280;43102;52.014;-0.680;2024-03-02T03:47:00;98009;;;4.25;85.09
57250;BME280;43102;52.014;-0.680;2024-03-02T03:48:00;98009;;;4.25;85.09
57250;BME280;43102;52.014;-0.680;2024-03-02T03:49:00;98009;;;4.25;85.09
57250;BME280;43102;52.014;-0.680;2024-03-02T03:50:00;98009;;;4.25;85.09
57250;BME280;43102;52.014;-0.680;2024-03-02T03:51:00;98009;;;4.25;85.09
57250;BME280;43102;52.014;-0.680;2024-03-02T03:52:00;98003;;;4.27;85.11
57250;BME280;43102;52.014;-0.680;2024-03-02T03:53:00;98003;;;4.27;85.11
57250;BME280;43102;52.014;-0.680;2024-03-02T03:54:00;98003;;;4.27;85.11
57250;BME280;43102;52.014;-0.680;2024-03-02T03:55:00;98003;;;4.27;85.11
57250;BME280;43102;52.014;-0.680;2024-03-02T03:56:00;98003;;;4.27;85.11
57250;BME280;43102;52.014;-0.680;2024-03-02T03:57:00;97997;;;4.26;85.24
57250;BME280;43102;52.014;-0.680;2024-03-02T03:58:00;97997;;;4.26;85.24
57250;BME280;43102;52.014;-0.680;2024-03-02T03:59:00;97997;;;4.26;85.24
57250;BME280;43102;52.014;-0.680;2024-03-02T04:00:00;97997;;;4.26;85.24
57250;BME280;43102;52.014;-0.680;2024-03-02T04:01:00;97997;;;4.26;85.24
57250;BME280;43102;52.014;-0.680;2024-03-02T04:02:00;97991;;;4.26;85.20
57250;BME280;43102;52.014;-0.680;2024-03-02T04:03:00;97991;;;4.26;85.20
57250;BME280;43102;52.014;-0.680;2024-03-02T04:04:00;97991;;;4.26;85.20
57250;BME280;43102;52.014;-0.680;2024-03-02T04:05:00;97991;;;4.26;85.20
57250;BME280;43102;52.014;-0.680;2024-03-02T04:06:00;97991;;;4.26;85.20
57250;BME280;43102;52.014;-0.680;2024-03-02T04:07:00;97982;;;4.25;85.17
57250;BME280;43102;52.014;-0.680;2024-03-02T04:08:00;97982;;;4.25;85.17
57250;BME280;43102;52.014;-0.680;2024-03-02T04:09:00;97982;;;4.25;85.17
57250;BME280;43102;52.014;-0.680;2024-03-02T04:10:00;97982;;;4.25;85.17
57250;BME280;43102;52.014;-0.680;2024-03-02T04:11:00;97982;;;4.25;85.17
57250;BME280;43102;52.014;-0.680;2024-03-02T04:12:00;97981;;;4.18;85.28
57250;BME280;43102;52.014;-0.680;2024-03-02T04:13:00;97981;;;4.18;85.28
57250;BME280;43102;52.014;-0.680;2024-03-02T04:14:00;97981;;;4.18;85.28
57250;BME280;43102;52.014;-0.680;2024-03-02T04:15:00;97981;;;4.18;85.28
57250;BME280;43102;52.014;-0.680;2024-03-02T04:16:00;97981;;;4.18;85.28
57250;BME280;43102;52.014;-0.680;2024-03-02T04:17:00;97985;;;4.17;85.43
57250;BME280;43102;52.014;-0.680;2024-03-02T04:18:00;97985;;;4.17;85.43
57250;BME280;43102;52.014;-0.680;2024-03-02T04:19:00;97985;;;4.17;85.43
57250;BME280;43102;52.014;-0.680;2024-03-02T04:20:00;97985;;;4.17;85.43
57250;BME280;43102;52.014;-0.680;2024-03-02T04:21:00;97985;;;4.17;85.43
57250;BME280;43102;52.014;-0.680;2024-03-02T04:22:00;97983;;;4.12;85.67
57250;BME280;43102;52.014;-0.680;2024-03-02T04:23:00;97983;;;4.12;85.67
57250;BME280;43102;52.014;-0.680;2024-03-02T04:24:00;97983;;;4.12;85.67
57250;BME280;43102;52.014;-0.680;2024-03-02T04:25:00;97983;;;4.12;85.67
57250;BME280;43102;52.014;-0.680;2024-03-02T04:26:00;97983;;;4.12;85.67
57250;BME280;43102;52.014;-0.680;2024-03-02T04:27:00;97986;;;4.14;85.74
57250;BME280;43102;52.014;-0.680;2024-03-02T04:28:00;97986;;;4.14;85.74
57250;BME280;43102;52.014;-0.680;2024-03-02T04:29:00;97986;;;4.14;85.74
57250;BME280;43102;52.014;-0.680;2024-03-02T04:30:00;97986;;;4.14;85.74
57250;BME280;43102;52.014;-0.680;2024-03-02T04:31:00;97986;;;4.14;85.74
57250;BME280;43102;52.014;-0.680;2024-03-02T04:32:00;97989;;;4.11;85.73
57250;BME280;43102;52.014;-0.680;2024-03-02T04:33:00;97989;;;4.11;85.73
57250;BME280;43102;52.014;-0.680;2024-03-02T04:34:00;97989;;;4.11;85.73
57250;BME280;43102;52.014;-0.680;2024-03-02T04:35:00;97989;;;4.11;85.73
57250;BME280;43102;52.014;-0.680;2024-03-02T04:36:00;97989;;;4.11;85.73
57250;BME280;43102;52.014;-0.680;2024-03-02T04:37:00;97980;;;4.09;85.71
57250;BME280;43102;52.014;-0.680;2024-03-02T04:38:00;97980;;;4.09;85.71
57250;BME280;43102;52.014;-0.680;2024-03-02T04:39:00;97980;;;4.09;85.71
57250;BME280;43102;52.014;-0.680;2024-03-02T04:40:00;97980;;;4.09;85.71
57250;BME280;43102;52.014;-0.680;2024-03-02T04:41:00;97980;;;4.09;85.71
57250;BME280;43102;52.014;-0.680;2024-03-02T04:42:00;97972;;;4.05;85.65
57250;BME280;43102;52.014;-0.680;2024-03-02T04:43:00;97972;;;4.05;85.65
57250;BME280;43102;52.014;-0.680;2024-03-02T04:44:00;97972;;;4.05;85.65
57250;BME280;43102;52.014;-0.680;2024-03-02T04:45:00;97972;;;4.05;85.65
57250;BME280;43102;52.014;-0.680;2024-03-02T04:46:00;97972;;;4.05;85.65
57250;BME280;43102;52.014;-0.680;2024-03-02T04:47:00;97975;;;3.98;85.64
57250;BME280;43102;52.014;-0.680;2024-03-02T04:48:00;97975;;;3.98;85.64
57250;BME280;43102;52.014;-0.680;2024-03-02T04:49:00;97975;;;3.98;85.64
57250;BME280;43102;52.014;-0.680;2024-03-02T04:50:00;97975;;;3.98;85.64
57250;BME280;43102;52.014;-0.680;2024-03-02T04:51:00;97975;;;3.98;85.64
57250;BME280;43102;52.014;-0.680;2024-03-02T04:52:00;97974;;;3.95;85.71
57250;BME280;43102;52.014;-0.680;2024-03-02T04:53:00;97974;;;3.95;85.71
57250;BME280;43102;52.014;-0.680;2024-03-02T04:54:00;97974;;;3.95;85.71
57250;BME280;43102;52.014;-0.680;2024-03-02T04:55:00;97974;;;3.95;85.71
57250;BME280;43102;52.014;-0.680;2024-03-02T04:56:00;97974;;;3.95;85.71
57250;BME280;43102;52.014;-0.680;2024-03-02T04:57:00;97974;;;3.96;85.86
57250;BME280;43102;52.014;-0.680;2024-03-02T04:58:00;97974;;;3.96;85.86
57250;BME280;43102;52.014;-0.680;2024-03-02T04:59:00;97974;;;3.96;85.86
57250;BME280;43102;52.014;-0.680;2024-03-02T05:00:00;97974;;;3.96;85.86
57250;BME280;43102;52.014;-0.680;2024-03-02T05:01:00;97974;;;3.96;85.86
57250;BME280;43102;52.014;-0.680;2024-03-02T05:02:00;97981;;;3.97;85.82
57250;BME280;43102;52.014;-0.680;2024-03-02T05:03:00;97981;;;3.97;85.82
57250;BME280;43102;52.014;-0.680;2024-03-02T05:04:00;97981;;;3.97;85.82
57250;BME280;43102;52.014;-0.680;2024-03-02T05:05:00;97981;;;3.97;85.82
57250;BME280;43102;52.014;-0.680;2024-03-02T05:06:00;97981;;;3.97;85.82
57250;BME280;43102;52.014;-0.680;2024-03-02T05:07:00;97985;;;3.98;85.89
57250;BME280;43102;52.014;-0.680;2024-03-02T05:08:00;97985;;;3.98;85.89
57250;BME280;43102;52.014;-0.680;2024-03-02T05:09:00;97985;;;3.98;85.89
57250;BME280;43102;52.014;-0.680;2024-03-02T05:10:00;97985;;;3.98;85.89
57250;BME280;43102;52.014;-0.680;2024-03-02T05:11:00;97985;;;3.98;85.89
57250;BME280;43102;52.014;-0.680;2024-03-02T05:12:00;97987;;;4.00;85.98
57250;BME280;43102;52.014;-0.680;2024-03-02T05:13:00;97987;;;4.00;85.98
57250;BME280;43102;52.014;-0.680;2024-03-02T05:14:00;97987;;;4.00;85.98
57250;BME280;43102;52.014;-0.680;2024-03-02T05:15:00;97987;;;4.00;85.98
57250;BME280;43102;52.014;-0.680;2024-03-02T05:16:00;97987;;;4.00;85.98
57250;BME280;43102;52.014;-0.680;2024-03-02T05:17:00;97975;;;4.04;86.15
57250;BME280;43102;52.014;-0.680;2024-03-02T05:18:00;97975;;;4.04;86.15
57250;BME280;43102;52.014;-0.680;2024-03-02T05:19:00;97975;;;4.04;86.15
57250;BME280;43102;52.014;-0.680;2024-03-02T05:20:00;97975;;;4.04;86.15
57250;BME280;43102;52.014;-0.680;2024-03-02T05:21:00;97975;;;4.04;86.15
57250;BME280;43102;52.014;-0.680;2024-03-02T05:22:00;97965;;;4.01;86.33
57250;BME280;43102;52.014;-0.680;2024-03-02T05:23:00;97965;;;4.01;86.33
57250;BME280;43102;52.014;-0.680;2024-03-02T05:24:00;97965;;;4.01;86.33
57250;BME280;43102;52.014;-0.680;2024-03-02T05:25:00;97965;;;4.01;86.33
57250;BME280;43102;52.014;-0.680;2024-03-02T05:26:00;97965;;;4.01;86.33
57250;BME280;43102;52.014;-0.680;2024-03-02T05:27:00;97958;;;4.01;86.51
57250;BME280;43102;52.014;-0.680;2024-03-02T05:28:00;97958;;;4.01;86.51
57250;BME280;43102;52.014;-0.680;2024-03-02T05:29:00;97958;;;4.01;86.51
57250;BME280;43102;52.014;-0.680;2024-03-02T05:30:00;97958;;;4.01;86.51